Mendes, Brazil
Current Conditions -  °F | °C
As of 2:00 PM on Monday 26 Jan 2015 (Local Time) from SBSC Reporting Station
Few Clouds Few Clouds  
Wind Chill: 90°   Ceiling: Unl
Heat Index: 95°   Visibility: 6mi
Dew Point: 70°   Wind: 12mph
Humidity: 52%   Direction: 180°S
Pressure: 29.88"   Gusts: NA
Location:  22.53°S, 43.73°W
Report Text: SBSC 261600Z 18010KT 9999 FEW030 FEW040TCU 32/21 Q1012
Loading
Personal Weather Stations






























Interactive Weather Map New forecast layout! Learn more

10-Day Weather Forecast

Advertisements
Track Severe Weather on mobile